sensor_id;sensor_type;location;lat;lon;timestamp;pressure;altitude;pressure_sealevel;temperature
42119;BMP280;27783;42.782;23.274;2023-10-13T00:01:57;96045.44;;;8.58
42119;BMP280;27783;42.782;23.274;2023-10-13T00:04:32;96042.34;;;8.53
42119;BMP280;27783;42.782;23.274;2023-10-13T00:07:01;96023.69;;;8.61
42119;BMP280;27783;42.782;23.274;2023-10-13T00:09:31;96033.09;;;8.62
42119;BMP280;27783;42.782;23.274;2023-10-13T00:12:06;96033.44;;;8.32
42119;BMP280;27783;42.782;23.274;2023-10-13T00:14:35;96034.03;;;8.48
42119;BMP280;27783;42.782;23.274;2023-10-13T00:17:02;96028.53;;;8.59
42119;BMP280;27783;42.782;23.274;2023-10-13T00:19:31;96035.00;;;8.65
42119;BMP280;27783;42.782;23.274;2023-10-13T00:22:03;96022.09;;;8.53
42119;BMP280;27783;42.782;23.274;2023-10-13T00:24:36;96021.28;;;8.49
42119;BMP280;27783;42.782;23.274;2023-10-13T00:27:15;96024.00;;;8.56
42119;BMP280;27783;42.782;23.274;2023-10-13T00:29:54;96034.41;;;8.49
42119;BMP280;27783;42.782;23.274;2023-10-13T00:32:39;96024.81;;;8.92
42119;BMP280;27783;42.782;23.274;2023-10-13T00:35:09;96033.25;;;8.76
42119;BMP280;27783;42.782;23.274;2023-10-13T00:37:35;96027.72;;;8.27
42119;BMP280;27783;42.782;23.274;2023-10-13T00:40:07;96030.00;;;8.28
42119;BMP280;27783;42.782;23.274;2023-10-13T00:42:42;96034.75;;;8.19
42119;BMP280;27783;42.782;23.274;2023-10-13T00:45:16;96030.00;;;8.28
42119;BMP280;27783;42.782;23.274;2023-10-13T00:47:42;96033.97;;;8.44
42119;BMP280;27783;42.782;23.274;2023-10-13T00:50:15;96037.56;;;8.33
42119;BMP280;27783;42.782;23.274;2023-10-13T00:52:43;96042.47;;;8.34
42119;BMP280;27783;42.782;23.274;2023-10-13T00:55:13;96035.25;;;8.03
42119;BMP280;27783;42.782;23.274;2023-10-13T00:57:39;96037.63;;;7.89
42119;BMP280;27783;42.782;23.274;2023-10-13T01:00:06;96039.66;;;7.77
42119;BMP280;27783;42.782;23.274;2023-10-13T01:03:04;96051.00;;;7.59
42119;BMP280;27783;42.782;23.274;2023-10-13T01:05:32;96041.16;;;7.53
42119;BMP280;27783;42.782;23.274;2023-10-13T01:08:01;96043.66;;;7.46
42119;BMP280;27783;42.782;23.274;2023-10-13T01:10:27;96050.88;;;7.31
42119;BMP280;27783;42.782;23.274;2023-10-13T01:12:54;96048.19;;;7.27
42119;BMP280;27783;42.782;23.274;2023-10-13T01:15:20;96047.22;;;7.16
42119;BMP280;27783;42.782;23.274;2023-10-13T01:17:54;96043.72;;;7.49
42119;BMP280;27783;42.782;23.274;2023-10-13T01:20:21;96040.78;;;7.54
42119;BMP280;27783;42.782;23.274;2023-10-13T01:22:53;96046.41;;;7.53
42119;BMP280;27783;42.782;23.274;2023-10-13T01:25:25;96053.44;;;7.71
42119;BMP280;27783;42.782;23.274;2023-10-13T01:27:54;96055.06;;;7.79
42119;BMP280;27783;42.782;23.274;2023-10-13T01:30:20;96044.47;;;7.72
42119;BMP280;27783;42.782;23.274;2023-10-13T01:32:50;96039.69;;;7.33
42119;BMP280;27783;42.782;23.274;2023-10-13T01:35:17;96051.09;;;7.44
42119;BMP280;27783;42.782;23.274;2023-10-13T01:38:00;96048.72;;;7.36
42119;BMP280;27783;42.782;23.274;2023-10-13T01:40:26;96053.88;;;6.92
42119;BMP280;27783;42.782;23.274;2023-10-13T01:42:54;96051.94;;;7.08
42119;BMP280;27783;42.782;23.274;2023-10-13T01:45:23;96045.50;;;7.24
42119;BMP280;27783;42.782;23.274;2023-10-13T01:47:54;96048.47;;;7.44
42119;BMP280;27783;42.782;23.274;2023-10-13T01:50:19;96047.44;;;7.48
42119;BMP280;27783;42.782;23.274;2023-10-13T01:52:55;96050.09;;;7.74
42119;BMP280;27783;42.782;23.274;2023-10-13T01:55:43;96048.78;;;7.83
42119;BMP280;27783;42.782;23.274;2023-10-13T01:58:15;96040.66;;;7.48
42119;BMP280;27783;42.782;23.274;2023-10-13T02:00:45;96046.06;;;7.14
42119;BMP280;27783;42.782;23.274;2023-10-13T02:03:13;96043.00;;;7.31
42119;BMP280;27783;42.782;23.274;2023-10-13T02:05:46;96046.22;;;7.65
42119;BMP280;27783;42.782;23.274;2023-10-13T02:08:16;96038.53;;;7.53
42119;BMP280;27783;42.782;23.274;2023-10-13T02:10:49;96046.78;;;7.55
42119;BMP280;27783;42.782;23.274;2023-10-13T02:13:16;96054.72;;;7.58
42119;BMP280;27783;42.782;23.274;2023-10-13T02:15:46;96046.22;;;7.43
42119;BMP280;27783;42.782;23.274;2023-10-13T02:18:16;96044.16;;;7.33
42119;BMP280;27783;42.782;23.274;2023-10-13T02:21:02;96044.75;;;7.23
42119;BMP280;27783;42.782;23.274;2023-10-13T02:23:30;96048.00;;;7.39
42119;BMP280;27783;42.782;23.274;2023-10-13T02:25:56;96041.25;;;7.38
42119;BMP280;27783;42.782;23.274;2023-10-13T02:28:36;96050.31;;;7.40
42119;BMP280;27783;42.782;23.274;2023-10-13T02:31:02;96049.94;;;7.42
42119;BMP280;27783;42.782;23.274;2023-10-13T02:33:29;96042.63;;;7.50
42119;BMP280;27783;42.782;23.274;2023-10-13T02:36:04;96055.13;;;7.38
42119;BMP280;27783;42.782;23.274;2023-10-13T02:38:32;96053.13;;;7.54
42119;BMP280;27783;42.782;23.274;2023-10-13T02:41:20;96060.84;;;7.44
42119;BMP280;27783;42.782;23.274;2023-10-13T02:43:53;96056.59;;;7.58
42119;BMP280;27783;42.782;23.274;2023-10-13T02:46:20;96053.63;;;7.19
42119;BMP280;27783;42.782;23.274;2023-10-13T02:48:47;96055.63;;;7.25
42119;BMP280;27783;42.782;23.274;2023-10-13T02:51:19;96052.44;;;7.35
42119;BMP280;27783;42.782;23.274;2023-10-13T02:53:50;96064.66;;;7.28
42119;BMP280;27783;42.782;23.274;2023-10-13T02:56:18;96058.81;;;7.15
42119;BMP280;27783;42.782;23.274;2023-10-13T02:58:55;96057.03;;;7.19
42119;BMP280;27783;42.782;23.274;2023-10-13T03:01:32;96073.38;;;7.13
42119;BMP280;27783;42.782;23.274;2023-10-13T03:04:00;96073.44;;;6.98
42119;BMP280;27783;42.782;23.274;2023-10-13T03:06:26;96066.69;;;6.79
42119;BMP280;27783;42.782;23.274;2023-10-13T03:09:17;96069.78;;;6.65
42119;BMP280;27783;42.782;23.274;2023-10-13T03:11:47;96076.31;;;6.38
42119;BMP280;27783;42.782;23.274;2023-10-13T03:14:21;96072.16;;;6.37
42119;BMP280;27783;42.782;23.274;2023-10-13T03:16:57;96079.13;;;5.99
42119;BMP280;27783;42.782;23.274;2023-10-13T03:19:42;96072.38;;;6.14
42119;BMP280;27783;42.782;23.274;2023-10-13T03:22:11;96061.50;;;5.97
42119;BMP280;27783;42.782;23.274;2023-10-13T03:24:41;96066.50;;;5.86
42119;BMP280;27783;42.782;23.274;2023-10-13T03:27:13;96068.59;;;5.96
42119;BMP280;27783;42.782;23.274;2023-10-13T03:29:43;96066.81;;;6.00
42119;BMP280;27783;42.782;23.274;2023-10-13T03:32:10;96071.84;;;6.38
42119;BMP280;27783;42.782;23.274;2023-10-13T03:34:43;96069.44;;;6.67
42119;BMP280;27783;42.782;23.274;2023-10-13T03:37:41;96068.53;;;6.41
42119;BMP280;27783;42.782;23.274;2023-10-13T03:42:48;96054.97;;;6.73
42119;BMP280;27783;42.782;23.274;2023-10-13T03:45:37;96050.72;;;6.83
42119;BMP280;27783;42.782;23.274;2023-10-13T03:50:38;96055.25;;;6.86
42119;BMP280;27783;42.782;23.274;2023-10-13T03:53:23;96051.94;;;6.71
42119;BMP280;27783;42.782;23.274;2023-10-13T03:55:51;96053.59;;;6.79
42119;BMP280;27783;42.782;23.274;2023-10-13T03:58:35;96053.47;;;6.90
42119;BMP280;27783;42.782;23.274;2023-10-13T04:01:04;96043.69;;;7.28
42119;BMP280;27783;42.782;23.274;2023-10-13T04:03:31;96038.28;;;6.99
42119;BMP280;27783;42.782;23.274;2023-10-13T04:06:01;96047.94;;;6.77
42119;BMP280;27783;42.782;23.274;2023-10-13T04:08:31;96049.88;;;6.80
42119;BMP280;27783;42.782;23.274;2023-10-13T04:11:08;96048.78;;;6.81
42119;BMP280;27783;42.782;23.274;2023-10-13T04:13:53;96047.25;;;6.80
42119;BMP280;27783;42.782;23.274;2023-10-13T04:16:37;96048.78;;;6.81
42119;BMP280;27783;42.782;23.274;2023-10-13T04:19:04;96049.94;;;6.83
42119;BMP280;27783;42.782;23.274;2023-10-13T04:21:33;96059.66;;;6.82
42119;BMP280;27783;42.782;23.274;2023-10-13T04:26:43;96060.34;;;6.80
42119;BMP280;27783;42.782;23.274;2023-10-13T04:29:29;96065.06;;;6.71
42119;BMP280;27783;42.782;23.274;2023-10-13T04:32:14;96071.22;;;6.63
42119;BMP280;27783;42.782;23.274;2023-10-13T04:34:44;96064.53;;;6.65
42119;BMP280;27783;42.782;23.274;2023-10-13T04:37:14;96070.44;;;6.78
42119;BMP280;27783;42.782;23.274;2023-10-13T04:39:57;96074.38;;;6.35
42119;BMP280;27783;42.782;23.274;2023-10-13T04:42:34;96087.75;;;6.00
42119;BMP280;27783;42.782;23.274;2023-10-13T04:45:16;96072.66;;;5.94
42119;BMP280;27783;42.782;23.274;2023-10-13T04:47:56;96074.66;;;5.55
42119;BMP280;27783;42.782;23.274;2023-10-13T04:50:40;96083.88;;;5.64
42119;BMP280;27783;42.782;23.274;2023-10-13T04:53:13;96080.06;;;5.62
42119;BMP280;27783;42.782;23.274;2023-10-13T04:56:08;96090.94;;;5.48
42119;BMP280;27783;42.782;23.274;2023-10-13T04:58:53;96088.53;;;5.70
42119;BMP280;27783;42.782;23.274;2023-10-13T05:01:37;96095.81;;;5.50
42119;BMP280;27783;42.782;23.274;2023-10-13T05:04:21;96100.50;;;5.86
42119;BMP280;27783;42.782;23.274;2023-10-13T05:06:55;96105.88;;;5.63
42119;BMP280;27783;42.782;23.274;2023-10-13T05:09:39;96100.59;;;6.05
42119;BMP280;27783;42.782;23.274;2023-10-13T05:12:23;96106.41;;;6.14
42119;BMP280;27783;42.782;23.274;2023-10-13T05:15:07;96111.13;;;6.08
42119;BMP280;27783;42.782;23.274;2023-10-13T05:17:51;96108.81;;;6.37
42119;BMP280;27783;42.782;23.274;2023-10-13T05:20:37;96119.28;;;6.70
42119;BMP280;27783;42.782;23.274;2023-10-13T05:23:21;96120.66;;;6.31
42119;BMP280;27783;42.782;23.274;2023-10-13T05:26:17;96119.81;;;6.61
42119;BMP280;27783;42.782;23.274;2023-10-13T05:29:01;96130.97;;;6.91
42119;BMP280;27783;42.782;23.274;2023-10-13T05:31:45;96134.69;;;7.09
42119;BMP280;27783;42.782;23.274;2023-10-13T05:34:29;96138.50;;;7.30
42119;BMP280;27783;42.782;23.274;2023-10-13T05:37:13;96140.50;;;7.36
42119;BMP280;27783;42.782;23.274;2023-10-13T05:39:57;96130.41;;;7.56
42119;BMP280;27783;42.782;23.274;2023-10-13T05:42:41;96142.63;;;7.71
42119;BMP280;27783;42.782;23.274;2023-10-13T05:45:24;96135.06;;;7.88
42119;BMP280;27783;42.782;23.274;2023-10-13T05:48:05;96136.69;;;8.14
42119;BMP280;27783;42.782;23.274;2023-10-13T05:50:49;96143.69;;;8.07
42119;BMP280;27783;42.782;23.274;2023-10-13T05:53:22;96144.50;;;8.32
42119;BMP280;27783;42.782;23.274;2023-10-13T05:56:06;96139.91;;;8.26
42119;BMP280;27783;42.782;23.274;2023-10-13T05:58:50;96147.47;;;8.31
42119;BMP280;27783;42.782;23.274;2023-10-13T06:01:34;96137.72;;;8.32
42119;BMP280;27783;42.782;23.274;2023-10-13T06:04:22;96139.81;;;8.45
42119;BMP280;27783;42.782;23.274;2023-10-13T06:07:06;96139.19;;;8.54
42119;BMP280;27783;42.782;23.274;2023-10-13T06:09:50;96131.09;;;8.66
42119;BMP280;27783;42.782;23.274;2023-10-13T06:12:34;96138.47;;;8.82
42119;BMP280;27783;42.782;23.274;2023-10-13T06:15:17;96150.34;;;8.99
42119;BMP280;27783;42.782;23.274;2023-10-13T06:18:01;96145.38;;;9.22
42119;BMP280;27783;42.782;23.274;2023-10-13T06:20:45;96151.13;;;9.63
42119;BMP280;27783;42.782;23.274;2023-10-13T06:23:29;96141.72;;;9.94
42119;BMP280;27783;42.782;23.274;2023-10-13T06:26:13;96150.06;;;10.03
42119;BMP280;27783;42.782;23.274;2023-10-13T06:28:57;96156.50;;;10.51
42119;BMP280;27783;42.782;23.274;2023-10-13T06:31:23;96154.94;;;10.40
42119;BMP280;27783;42.782;23.274;2023-10-13T06:33:50;96158.38;;;10.50
42119;BMP280;27783;42.782;23.274;2023-10-13T06:36:16;96153.59;;;10.63
42119;BMP280;27783;42.782;23.274;2023-10-13T06:38:43;96159.13;;;11.07
42119;BMP280;27783;42.782;23.274;2023-10-13T06:41:08;96165.38;;;11.38
42119;BMP280;27783;42.782;23.274;2023-10-13T06:43:36;96164.00;;;11.71
42119;BMP280;27783;42.782;23.274;2023-10-13T06:46:12;96163.31;;;11.94
42119;BMP280;27783;42.782;23.274;2023-10-13T06:48:48;96157.19;;;11.70
42119;BMP280;27783;42.782;23.274;2023-10-13T06:51:18;96144.47;;;12.26
42119;BMP280;27783;42.782;23.274;2023-10-13T06:53:47;96145.25;;;12.37
42119;BMP280;27783;42.782;23.274;2023-10-13T06:56:16;96136.13;;;13.02
42119;BMP280;27783;42.782;23.274;2023-10-13T06:58:50;96139.97;;;12.64
42119;BMP280;27783;42.782;23.274;2023-10-13T07:01:16;96133.84;;;13.11
42119;BMP280;27783;42.782;23.274;2023-10-13T07:03:44;96132.63;;;13.36
42119;BMP280;27783;42.782;23.274;2023-10-13T07:06:17;96138.25;;;13.51
42119;BMP280;27783;42.782;23.274;2023-10-13T07:08:45;96141.91;;;13.78
42119;BMP280;27783;42.782;23.274;2023-10-13T07:11:17;96149.19;;;14.30
42119;BMP280;27783;42.782;23.274;2023-10-13T07:13:59;96148.59;;;14.02
42119;BMP280;27783;42.782;23.274;2023-10-13T07:16:25;96149.91;;;14.34
42119;BMP280;27783;42.782;23.274;2023-10-13T07:19:00;96142.59;;;13.99
42119;BMP280;27783;42.782;23.274;2023-10-13T07:21:30;96135.28;;;14.62
42119;BMP280;27783;42.782;23.274;2023-10-13T07:23:59;96140.84;;;14.78
42119;BMP280;27783;42.782;23.274;2023-10-13T07:26:34;96135.81;;;15.58
42119;BMP280;27783;42.782;23.274;2023-10-13T07:29:00;96130.31;;;15.75
42119;BMP280;27783;42.782;23.274;2023-10-13T07:31:25;96123.00;;;15.53
42119;BMP280;27783;42.782;23.274;2023-10-13T07:33:52;96120.09;;;15.70
42119;BMP280;27783;42.782;23.274;2023-10-13T07:36:29;96120.13;;;15.38
42119;BMP280;27783;42.782;23.274;2023-10-13T07:38:58;96110.13;;;16.07
42119;BMP280;27783;42.782;23.274;2023-10-13T07:41:42;96114.06;;;16.25
42119;BMP280;27783;42.782;23.274;2023-10-13T07:44:07;96104.31;;;16.85
42119;BMP280;27783;42.782;23.274;2023-10-13T07:46:33;96109.84;;;17.17
42119;BMP280;27783;42.782;23.274;2023-10-13T07:49:00;96121.72;;;15.32
42119;BMP280;27783;42.782;23.274;2023-10-13T07:51:35;96119.41;;;15.67
42119;BMP280;27783;42.782;23.274;2023-10-13T07:54:12;96108.69;;;17.18
42119;BMP280;27783;42.782;23.274;2023-10-13T07:56:40;96103.22;;;17.43
42119;BMP280;27783;42.782;23.274;2023-10-13T07:59:05;96098.31;;;17.61
42119;BMP280;27783;42.782;23.274;2023-10-13T08:01:33;96099.41;;;17.82
42119;BMP280;27783;42.782;23.274;2023-10-13T08:03:59;96090.47;;;18.23
42119;BMP280;27783;42.782;23.274;2023-10-13T08:06:37;96113.44;;;17.07
42119;BMP280;27783;42.782;23.274;2023-10-13T08:09:03;96097.09;;;17.84
42119;BMP280;27783;42.782;23.274;2023-10-13T08:11:35;96095.94;;;17.28
42119;BMP280;27783;42.782;23.274;2023-10-13T08:14:03;96088.72;;;18.48
42119;BMP280;27783;42.782;23.274;2023-10-13T08:16:43;96100.06;;;17.48
42119;BMP280;27783;42.782;23.274;2023-10-13T08:19:15;96099.34;;;18.01
42119;BMP280;27783;42.782;23.274;2023-10-13T08:21:46;96108.94;;;18.33
42119;BMP280;27783;42.782;23.274;2023-10-13T08:24:17;96099.00;;;19.23
42119;BMP280;27783;42.782;23.274;2023-10-13T08:26:50;96088.66;;;18.35
42119;BMP280;27783;42.782;23.274;2023-10-13T08:29:34;96080.34;;;19.08
42119;BMP280;27783;42.782;23.274;2023-10-13T08:32:18;96083.56;;;18.41
42119;BMP280;27783;42.782;23.274;2023-10-13T08:34:53;96083.34;;;19.65
42119;BMP280;27783;42.782;23.274;2023-10-13T08:37:20;96087.28;;;19.61
42119;BMP280;27783;42.782;23.274;2023-10-13T08:39:52;96077.97;;;18.51
42119;BMP280;27783;42.782;23.274;2023-10-13T08:42:35;96081.94;;;19.49
42119;BMP280;27783;42.782;23.274;2023-10-13T08:47:51;96084.84;;;19.66
42119;BMP280;27783;42.782;23.274;2023-10-13T08:50:45;96075.25;;;19.81
42119;BMP280;27783;42.782;23.274;2023-10-13T08:53:30;96064.66;;;20.26
42119;BMP280;27783;42.782;23.274;2023-10-13T08:58:27;96054.88;;;21.13
42119;BMP280;27783;42.782;23.274;2023-10-13T09:01:13;96046.84;;;22.05
42119;BMP280;27783;42.782;23.274;2023-10-13T09:03:41;96060.25;;;21.55
42119;BMP280;27783;42.782;23.274;2023-10-13T09:06:13;96061.63;;;21.59
42119;BMP280;27783;42.782;23.274;2023-10-13T09:08:45;96059.94;;;21.53
42119;BMP280;27783;42.782;23.274;2023-10-13T09:11:33;96046.72;;;22.09
42119;BMP280;27783;42.782;23.274;2023-10-13T09:14:14;96042.91;;;22.27
42119;BMP280;27783;42.782;23.274;2023-10-13T09:17:06;96044.28;;;21.52
42119;BMP280;27783;42.782;23.274;2023-10-13T09:20:03;96036.03;;;21.67
42119;BMP280;27783;42.782;23.274;2023-10-13T09:22:56;96024.56;;;21.96
42119;BMP280;27783;42.782;23.274;2023-10-13T09:25:32;96034.25;;;22.32
42119;BMP280;27783;42.782;23.274;2023-10-13T09:28:10;96026.84;;;22.06
42119;BMP280;27783;42.782;23.274;2023-10-13T09:30:53;96023.22;;;23.38
42119;BMP280;27783;42.782;23.274;2023-10-13T09:33:23;96023.81;;;22.90
42119;BMP280;27783;42.782;23.274;2023-10-13T09:36:02;96021.78;;;23.95
42119;BMP280;27783;42.782;23.274;2023-10-13T09:38:32;96009.03;;;23.21
42119;BMP280;27783;42.782;23.274;2023-10-13T09:40:58;96012.31;;;23.24
42119;BMP280;27783;42.782;23.274;2023-10-13T09:43:27;96006.31;;;23.47
42119;BMP280;27783;42.782;23.274;2023-10-13T09:46:00;96001.97;;;23.49
42119;BMP280;27783;42.782;23.274;2023-10-13T09:48:37;95995.94;;;23.72
42119;BMP280;27783;42.782;23.274;2023-10-13T09:51:12;95991.00;;;23.70
42119;BMP280;27783;42.782;23.274;2023-10-13T09:53:38;95982.50;;;24.12
42119;BMP280;27783;42.782;23.274;2023-10-13T09:56:14;95969.56;;;25.30
42119;BMP280;27783;42.782;23.274;2023-10-13T09:58:52;95981.63;;;24.60
42119;BMP280;27783;42.782;23.274;2023-10-13T10:01:24;95973.94;;;24.13
42119;BMP280;27783;42.782;23.274;2023-10-13T10:04:10;95970.97;;;24.89
42119;BMP280;27783;42.782;23.274;2023-10-13T10:06:51;95968.91;;;24.61
42119;BMP280;27783;42.782;23.274;2023-10-13T10:09:25;95955.78;;;25.70
42119;BMP280;27783;42.782;23.274;2023-10-13T10:12:16;95958.22;;;25.40
42119;BMP280;27783;42.782;23.274;2023-10-13T10:15:36;95954.47;;;26.27
42119;BMP280;27783;42.782;23.274;2023-10-13T10:17:59;95960.63;;;25.52
42119;BMP280;27783;42.782;23.274;2023-10-13T10:20:30;95941.09;;;26.52
42119;BMP280;27783;42.782;23.274;2023-10-13T10:23:12;95945.97;;;26.34
42119;BMP280;27783;42.782;23.274;2023-10-13T10:25:47;95935.75;;;27.16
42119;BMP280;27783;42.782;23.274;2023-10-13T10:28:13;95931.47;;;27.84
42119;BMP280;27783;42.782;23.274;2023-10-13T10:30:42;95922.22;;;28.77
42119;BMP280;27783;42.782;23.274;2023-10-13T10:33:09;95930.03;;;27.58
42119;BMP280;27783;42.782;23.274;2023-10-13T10:35:42;95932.38;;;27.01
42119;BMP280;27783;42.782;23.274;2023-10-13T10:40:58;95928.78;;;26.51
42119;BMP280;27783;42.782;23.274;2023-10-13T10:43:37;95923.31;;;27.29
42119;BMP280;27783;42.782;23.274;2023-10-13T10:46:16;95914.00;;;27.90
42119;BMP280;27783;42.782;23.274;2023-10-13T10:48:42;95926.03;;;27.84
42119;BMP280;27783;42.782;23.274;2023-10-13T10:51:09;95913.53;;;27.37
42119;BMP280;27783;42.782;23.274;2023-10-13T10:53:48;95916.63;;;26.61
42119;BMP280;27783;42.782;23.274;2023-10-13T10:56:17;95921.41;;;25.99
42119;BMP280;27783;42.782;23.274;2023-10-13T10:58:46;95909.88;;;26.18
42119;BMP280;27783;42.782;23.274;2023-10-13T11:01:12;95903.69;;;26.70
42119;BMP280;27783;42.782;23.274;2023-10-13T11:03:54;95900.47;;;26.66
42119;BMP280;27783;42.782;23.274;2023-10-13T11:06:23;95894.13;;;26.50
42119;BMP280;27783;42.782;23.274;2023-10-13T11:08:49;95899.00;;;27.34
42119;BMP280;27783;42.782;23.274;2023-10-13T11:11:30;95886.81;;;27.79
42119;BMP280;27783;42.782;23.274;2023-10-13T11:14:01;95887.78;;;27.46
42119;BMP280;27783;42.782;23.274;2023-10-13T11:16:46;95886.69;;;27.93
42119;BMP280;27783;42.782;23.274;2023-10-13T11:19:19;95884.09;;;27.19
42119;BMP280;27783;42.782;23.274;2023-10-13T11:21:46;95880.56;;;27.98
42119;BMP280;27783;42.782;23.274;2023-10-13T11:24:13;95876.22;;;28.58
42119;BMP280;27783;42.782;23.274;2023-10-13T11:26:38;95880.13;;;27.45
42119;BMP280;27783;42.782;23.274;2023-10-13T11:29:32;95872.03;;;27.50
42119;BMP280;27783;42.782;23.274;2023-10-13T11:32:00;95859.78;;;28.20
42119;BMP280;27783;42.782;23.274;2023-10-13T11:34:28;95862.25;;;28.24
42119;BMP280;27783;42.782;23.274;2023-10-13T11:37:05;95860.50;;;28.72
42119;BMP280;27783;42.782;23.274;2023-10-13T11:39:50;95858.97;;;27.79
42119;BMP280;27783;42.782;23.274;2023-10-13T11:42:17;95854.00;;;27.72
42119;BMP280;27783;42.782;23.274;2023-10-13T11:44:42;95854.09;;;27.83
42119;BMP280;27783;42.782;23.274;2023-10-13T11:47:11;95843.91;;;28.65
42119;BMP280;27783;42.782;23.274;2023-10-13T11:50:02;95846.47;;;28.79
42119;BMP280;27783;42.782;23.274;2023-10-13T11:52:30;95839.41;;;29.29
42119;BMP280;27783;42.782;23.274;2023-10-13T11:54:55;95836.19;;;29.26
42119;BMP280;27783;42.782;23.274;2023-10-13T11:57:21;95835.66;;;29.00
42119;BMP280;27783;42.782;23.274;2023-10-13T11:59:47;95833.66;;;30.13
42119;BMP280;27783;42.782;23.274;2023-10-13T12:02:19;95830.75;;;29.68
42119;BMP280;27783;42.782;23.274;2023-10-13T12:04:51;95823.25;;;30.17
42119;BMP280;27783;42.782;23.274;2023-10-13T12:07:22;95825.09;;;29.29
42119;BMP280;27783;42.782;23.274;2023-10-13T12:10:06;95830.34;;;28.59
42119;BMP280;27783;42.782;23.274;2023-10-13T12:12:40;95815.16;;;29.95
42119;BMP280;27783;42.782;23.274;2023-10-13T12:15:08;95815.44;;;29.55
42119;BMP280;27783;42.782;23.274;2023-10-13T12:17:50;95817.94;;;29.26
42119;BMP280;27783;42.782;23.274;2023-10-13T12:20:16;95817.06;;;28.72
42119;BMP280;27783;42.782;23.274;2023-10-13T12:22:57;95812.22;;;29.13
42119;BMP280;27783;42.782;23.274;2023-10-13T12:25:25;95806.56;;;29.17
42119;BMP280;27783;42.782;23.274;2023-10-13T12:27:53;95806.78;;;29.72
42119;BMP280;27783;42.782;23.274;2023-10-13T12:30:23;95805.53;;;29.14
42119;BMP280;27783;42.782;23.274;2023-10-13T12:33:13;95798.66;;;29.51
42119;BMP280;27783;42.782;23.274;2023-10-13T12:35:41;95797.16;;;29.82
42119;BMP280;27783;42.782;23.274;2023-10-13T12:38:25;95808.25;;;29.73
42119;BMP280;27783;42.782;23.274;2023-10-13T12:41:09;95797.28;;;30.16
42119;BMP280;27783;42.782;23.274;2023-10-13T12:43:53;95802.31;;;29.91
42119;BMP280;27783;42.782;23.274;2023-10-13T12:46:37;95793.59;;;30.19
42119;BMP280;27783;42.782;23.274;2023-10-13T12:49:21;95789.00;;;30.53
42119;BMP280;27783;42.782;23.274;2023-10-13T12:52:05;95794.44;;;30.53
42119;BMP280;27783;42.782;23.274;2023-10-13T12:54:43;95785.31;;;30.51
42119;BMP280;27783;42.782;23.274;2023-10-13T12:57:33;95791.94;;;28.98
42119;BMP280;27783;42.782;23.274;2023-10-13T12:59:59;95780.56;;;29.91
42119;BMP280;27783;42.782;23.274;2023-10-13T13:02:25;95784.78;;;29.01
42119;BMP280;27783;42.782;23.274;2023-10-13T13:04:52;95784.81;;;29.43
42119;BMP280;27783;42.782;23.274;2023-10-13T13:07:22;95784.53;;;29.74
42119;BMP280;27783;42.782;23.274;2023-10-13T13:09:48;95784.06;;;29.64
42119;BMP280;27783;42.782;23.274;2023-10-13T13:12:13;95781.22;;;30.18
42119;BMP280;27783;42.782;23.274;2023-10-13T13:14:39;95782.66;;;30.85
42119;BMP280;27783;42.782;23.274;2023-10-13T13:17:06;95776.41;;;30.50
42119;BMP280;27783;42.782;23.274;2023-10-13T13:19:33;95778.09;;;30.53
42119;BMP280;27783;42.782;23.274;2023-10-13T13:22:02;95776.63;;;29.92
42119;BMP280;27783;42.782;23.274;2023-10-13T13:24:29;95779.63;;;29.61
42119;BMP280;27783;42.782;23.274;2023-10-13T13:26:56;95775.19;;;29.59
42119;BMP280;27783;42.782;23.274;2023-10-13T13:29:21;95770.75;;;29.13
42119;BMP280;27783;42.782;23.274;2023-10-13T13:31:47;95768.25;;;29.68
42119;BMP280;27783;42.782;23.274;2023-10-13T13:34:12;95769.19;;;29.87
42119;BMP280;27783;42.782;23.274;2023-10-13T13:36:41;95767.75;;;30.46
42119;BMP280;27783;42.782;23.274;2023-10-13T13:39:10;95766.00;;;29.88
42119;BMP280;27783;42.782;23.274;2023-10-13T13:41:36;95775.66;;;29.78
42119;BMP280;27783;42.782;23.274;2023-10-13T13:44:01;95767.28;;;29.34
42119;BMP280;27783;42.782;23.274;2023-10-13T13:46:39;95769.97;;;29.82
42119;BMP280;27783;42.782;23.274;2023-10-13T13:49:06;95773.72;;;29.20
42119;BMP280;27783;42.782;23.274;2023-10-13T13:51:33;95766.81;;;29.46
42119;BMP280;27783;42.782;23.274;2023-10-13T13:53:59;95767.28;;;29.50
42119;BMP280;27783;42.782;23.274;2023-10-13T13:56:25;95770.97;;;29.15
42119;BMP280;27783;42.782;23.274;2023-10-13T13:58:52;95765.53;;;29.68
42119;BMP280;27783;42.782;23.274;2023-10-13T14:01:19;95769.03;;;29.37
42119;BMP280;27783;42.782;23.274;2023-10-13T14:03:51;95770.25;;;29.52
42119;BMP280;27783;42.782;23.274;2023-10-13T14:06:22;95765.06;;;29.38
42119;BMP280;27783;42.782;23.274;2023-10-13T14:08:58;95764.47;;;28.59
42119;BMP280;27783;42.782;23.274;2023-10-13T14:11:30;95784.44;;;28.61
42119;BMP280;27783;42.782;23.274;2023-10-13T14:14:13;95777.34;;;28.75
42119;BMP280;27783;42.782;23.274;2023-10-13T14:16:42;95769.25;;;29.12
42119;BMP280;27783;42.782;23.274;2023-10-13T14:19:13;95768.28;;;28.93
42119;BMP280;27783;42.782;23.274;2023-10-13T14:21:55;95773.31;;;28.43
42119;BMP280;27783;42.782;23.274;2023-10-13T14:24:22;95782.41;;;27.84
42119;BMP280;27783;42.782;23.274;2023-10-13T14:27:02;95779.94;;;27.50
42119;BMP280;27783;42.782;23.274;2023-10-13T14:29:37;95779.69;;;27.78
42119;BMP280;27783;42.782;23.274;2023-10-13T14:32:10;95786.47;;;27.33
42119;BMP280;27783;42.782;23.274;2023-10-13T14:34:40;95776.84;;;27.27
42119;BMP280;27783;42.782;23.274;2023-10-13T14:37:07;95784.88;;;26.91
42119;BMP280;27783;42.782;23.274;2023-10-13T14:39:32;95789.47;;;27.05
42119;BMP280;27783;42.782;23.274;2023-10-13T14:42:01;95780.16;;;26.87
42119;BMP280;27783;42.782;23.274;2023-10-13T14:44:27;95789.31;;;26.45
42119;BMP280;27783;42.782;23.274;2023-10-13T14:46:52;95781.56;;;26.33
42119;BMP280;27783;42.782;23.274;2023-10-13T14:49:21;95777.44;;;26.18
42119;BMP280;27783;42.782;23.274;2023-10-13T14:51:46;95785.94;;;26.11
42119;BMP280;27783;42.782;23.274;2023-10-13T14:54:12;95789.00;;;25.99
42119;BMP280;27783;42.782;23.274;2023-10-13T14:56:39;95783.25;;;25.91